Algoma, Mississippi
Current Conditions -  °F | °C
As of 1:28 AM on Monday 22 Dec 2014 (Local Time) from KTUP Reporting Station
Overcast Overcast  
Wind Chill: 45°   Ceiling: 700
Heat Index: 49°   Visibility: 7mi
Dew Point: 45°   Wind: 8mph
Humidity: 86%   Direction: 190°S
Pressure: 29.94"   Gusts: NA
Location:  34.18°N, 89.03°W
Report Text: KTUP 220728Z AUTO 19007KT 7SM OVC007 09/07 A2994 RMK AO2 CIG 006V011 T00940072
Loading
Personal Weather Stations






























Interactive Weather Map New forecast layout! Learn more

10-Day Weather Forecast

Advertisements
Track Severe Weather on mobile